createdAt,value
2023-02-21T00:00:03.268Z,10.00
2023-02-21T00:04:52.650Z,7.82
2023-02-21T00:09:33.612Z,11.15
2023-02-21T00:14:14.511Z,9.75
2023-02-21T00:18:55.870Z,9.75
2023-02-21T00:23:36.780Z,8.50
2023-02-21T00:28:20.256Z,8.05
2023-02-21T00:33:01.191Z,9.43
2023-02-21T00:37:43.601Z,15.65
2023-02-21T00:42:24.607Z,9.77
2023-02-21T00:47:05.988Z,10.70
2023-02-21T00:51:46.835Z,12.25
2023-02-21T00:56:27.784Z,9.30
2023-02-21T01:01:08.913Z,9.48
2023-02-21T01:05:50.109Z,8.80
2023-02-21T01:10:30.952Z,7.80
2023-02-21T01:15:12.599Z,8.57
2023-02-21T01:19:54.893Z,10.05
2023-02-21T01:24:35.768Z,6.85
2023-02-21T01:29:16.857Z,9.15
2023-02-21T01:34:00.293Z,7.72
2023-02-21T01:38:41.413Z,7.50
2023-02-21T01:43:41.705Z,5.57
2023-02-21T01:48:22.852Z,6.25
2023-02-21T01:53:05.303Z,5.20
2023-02-21T01:57:46.374Z,7.15
2023-02-21T02:03:05.615Z,5.25
2023-02-21T02:07:46.672Z,6.50
2023-02-21T02:12:35.854Z,7.15
2023-02-21T02:17:45.412Z,8.75
2023-02-21T02:22:15.612Z,7.07
2023-02-21T02:26:56.051Z,9.25
2023-02-21T02:32:04.280Z,8.20
2023-02-21T02:36:56.131Z,10.63
2023-02-21T02:41:42.394Z,8.10
2023-02-21T02:46:28.777Z,7.88
2023-02-21T02:50:52.293Z,9.10
2023-02-21T02:55:52.192Z,8.43
2023-02-21T03:00:15.307Z,10.35
2023-02-21T03:04:53.922Z,7.57
2023-02-21T03:09:39.586Z,11.32
2023-02-21T03:14:16.290Z,7.70
2023-02-21T03:18:44.808Z,8.18
2023-02-21T03:23:09.089Z,8.30
2023-02-21T03:27:32.507Z,9.10
2023-02-21T03:32:14.094Z,7.35
2023-02-21T03:36:38.831Z,11.68
2023-02-21T03:41:01.448Z,9.75
2023-02-21T03:45:24.722Z,7.57
2023-02-21T03:50:18.993Z,8.65
2023-02-21T03:54:42.548Z,8.70
2023-02-21T03:59:07.894Z,9.52
2023-02-21T04:03:29.951Z,8.93
2023-02-21T04:07:57.991Z,8.85
2023-02-21T04:12:21.633Z,7.97
2023-02-21T04:16:44.762Z,8.73
2023-02-21T04:21:06.928Z,7.45
2023-02-21T04:25:29.349Z,8.57
2023-02-21T04:29:57.095Z,8.43
2023-02-21T04:34:19.475Z,8.68
2023-02-21T04:38:42.408Z,8.48
2023-02-21T04:43:04.372Z,10.60
2023-02-21T04:47:26.654Z,12.80
2023-02-21T04:51:48.649Z,13.52
2023-02-21T04:56:12.953Z,12.13
2023-02-21T05:00:34.894Z,11.88
2023-02-21T05:04:56.925Z,13.00
2023-02-21T05:09:19.132Z,12.27
2023-02-21T05:13:40.981Z,24.92
2023-02-21T05:18:03.166Z,12.27
2023-02-21T05:22:25.157Z,11.05
2023-02-21T05:26:47.033Z,14.07
2023-02-21T05:31:09.463Z,14.25
2023-02-21T05:35:31.600Z,12.75
2023-02-21T05:39:53.777Z,13.77
2023-02-21T05:44:16.278Z,12.48
2023-02-21T05:48:38.273Z,13.65
2023-02-21T05:53:04.214Z,14.52
2023-02-21T05:57:26.408Z,11.48
2023-02-21T06:01:50.069Z,13.10
2023-02-21T06:06:12.514Z,13.15
2023-02-21T06:10:34.685Z,14.48
2023-02-21T06:14:56.815Z,15.50
2023-02-21T06:19:19.622Z,13.25
2023-02-21T06:23:41.729Z,12.25
2023-02-21T06:28:04.173Z,13.05
2023-02-21T06:32:27.888Z,13.07
2023-02-21T06:36:53.673Z,13.48
2023-02-21T06:41:21.433Z,12.30
2023-02-21T06:45:43.765Z,14.18
2023-02-21T06:50:08.035Z,16.50
2023-02-21T06:54:31.463Z,16.75
2023-02-21T06:58:53.756Z,15.05
2023-02-21T07:03:16.037Z,15.82
2023-02-21T07:07:38.426Z,19.33
2023-02-21T07:12:00.567Z,14.95
2023-02-21T07:16:22.985Z,17.73
2023-02-21T07:20:44.851Z,16.67
2023-02-21T07:25:07.091Z,14.60
2023-02-21T07:29:29.214Z,16.25
2023-02-21T07:33:51.328Z,14.48
2023-02-21T07:38:28.190Z,15.55
2023-02-21T07:42:50.051Z,17.73
2023-02-21T07:47:12.234Z,17.88
2023-02-21T07:51:34.793Z,16.63
2023-02-21T07:55:56.703Z,15.57
2023-02-21T08:00:19.412Z,18.20
2023-02-21T08:04:42.360Z,18.83
2023-02-21T08:09:06.725Z,19.42
2023-02-21T08:13:28.949Z,18.17
2023-02-21T08:17:51.577Z,18.70
2023-02-21T08:22:13.890Z,16.95
2023-02-21T08:26:41.441Z,18.60
2023-02-21T08:31:03.981Z,18.25
2023-02-21T08:35:25.746Z,18.33
2023-02-21T08:39:52.252Z,15.70
2023-02-21T08:44:17.218Z,17.20
2023-02-21T08:48:39.187Z,16.38
2023-02-21T08:53:01.129Z,17.10
2023-02-21T08:57:23.169Z,17.83
2023-02-21T09:01:45.500Z,14.75
2023-02-21T09:06:08.936Z,14.25
2023-02-21T09:10:34.220Z,17.20
2023-02-21T09:14:56.160Z,16.73
2023-02-21T09:19:18.302Z,15.43
2023-02-21T09:23:40.129Z,17.50
2023-02-21T09:28:02.482Z,15.70
2023-02-21T09:32:24.727Z,16.02
2023-02-21T09:36:48.755Z,17.92
2023-02-21T09:41:14.420Z,15.38
2023-02-21T09:45:37.809Z,15.13
2023-02-21T09:50:16.572Z,18.40
2023-02-21T09:54:44.354Z,16.67
2023-02-21T09:59:13.261Z,14.77
2023-02-21T10:04:06.147Z,15.77
2023-02-21T10:08:44.728Z,15.38
2023-02-21T10:13:22.007Z,13.73
2023-02-21T10:18:27.866Z,12.63
2023-02-21T10:22:52.329Z,13.57
2023-02-21T10:27:25.395Z,14.02
2023-02-21T10:31:48.898Z,14.32
2023-02-21T10:36:19.465Z,12.48
2023-02-21T10:40:57.925Z,12.40
2023-02-21T10:45:20.975Z,16.30
2023-02-21T10:50:06.430Z,11.60
2023-02-21T10:54:28.673Z,9.73
2023-02-21T10:59:06.150Z,11.65
2023-02-21T11:03:31.006Z,10.15
2023-02-21T11:08:07.954Z,12.10
2023-02-21T11:12:33.069Z,9.98
2023-02-21T11:17:34.615Z,8.85
2023-02-21T11:21:57.829Z,9.07
2023-02-21T11:26:19.795Z,10.70
2023-02-21T11:31:19.026Z,8.95
2023-02-21T11:35:52.990Z,11.02
2023-02-21T11:40:51.678Z,14.10
2023-02-21T11:45:28.571Z,8.50
2023-02-21T11:50:09.785Z,9.55
2023-02-21T11:54:31.872Z,13.40
2023-02-21T11:59:23.359Z,10.85
2023-02-21T12:03:56.013Z,13.20
2023-02-21T12:08:47.852Z,10.82
2023-02-21T12:13:36.629Z,18.50
2023-02-21T12:18:40.256Z,10.75
2023-02-21T12:23:16.207Z,10.38
2023-02-21T12:28:27.194Z,10.73
2023-02-21T12:33:07.322Z,15.25
2023-02-21T12:38:19.736Z,12.43
2023-02-21T12:42:54.258Z,14.77
2023-02-21T12:47:43.032Z,11.48
2023-02-21T12:52:40.386Z,15.60
2023-02-21T12:57:20.834Z,11.88
2023-02-21T13:02:10.822Z,15.50
2023-02-21T13:06:40.114Z,11.57
2023-02-21T13:11:25.791Z,13.82
2023-02-21T13:15:50.509Z,13.95
2023-02-21T13:20:21.536Z,13.98
2023-02-21T13:25:42.157Z,12.70
2023-02-21T13:30:23.779Z,14.30
2023-02-21T13:35:09.648Z,13.73
2023-02-21T13:39:37.948Z,14.00
2023-02-21T13:44:05.632Z,12.75
2023-02-21T13:48:30.003Z,12.65
2023-02-21T13:53:04.437Z,13.70
2023-02-21T13:57:36.072Z,15.15
2023-02-21T14:02:33.075Z,13.88
2023-02-21T14:06:58.510Z,12.30
2023-02-21T14:11:32.306Z,12.23
2023-02-21T14:16:16.072Z,11.60
2023-02-21T14:20:38.856Z,11.60
2023-02-21T14:25:18.873Z,12.98
2023-02-21T14:30:06.340Z,12.43
2023-02-21T14:34:47.844Z,13.20
2023-02-21T14:39:09.928Z,12.10
2023-02-21T14:43:57.816Z,10.52
2023-02-21T14:48:39.526Z,11.18
2023-02-21T14:53:48.531Z,16.00
2023-02-21T14:58:35.292Z,11.15
2023-02-21T15:03:34.036Z,10.20
2023-02-21T15:08:26.954Z,13.18
2023-02-21T15:13:27.761Z,10.40
2023-02-21T15:18:08.666Z,12.88
2023-02-21T15:22:30.866Z,10.60
2023-02-21T15:27:13.011Z,13.48
2023-02-21T15:31:54.973Z,10.43
2023-02-21T15:36:21.925Z,11.65
2023-02-21T15:40:44.453Z,12.00
2023-02-21T15:45:19.037Z,11.75
2023-02-21T15:49:58.040Z,14.05
2023-02-21T15:54:38.589Z,11.80
2023-02-21T15:59:33.741Z,11.60
2023-02-21T16:04:16.804Z,11.40
2023-02-21T16:09:18.435Z,12.57
2023-02-21T16:13:41.653Z,12.98
2023-02-21T16:18:18.899Z,10.75
2023-02-21T16:23:06.902Z,13.13
2023-02-21T16:27:27.108Z,13.55
2023-02-21T16:31:50.300Z,12.45
2023-02-21T16:36:25.441Z,13.43
2023-02-21T16:40:48.424Z,13.20
2023-02-21T16:45:10.788Z,12.13
2023-02-21T16:49:33.312Z,12.90
2023-02-21T16:53:55.517Z,14.70
2023-02-21T16:58:40.975Z,14.68
2023-02-21T17:03:02.999Z,16.00
2023-02-21T17:07:25.848Z,14.52
2023-02-21T17:11:48.290Z,17.02
2023-02-21T17:16:11.301Z,13.65
2023-02-21T17:20:33.820Z,16.10
2023-02-21T17:24:56.377Z,16.67
2023-02-21T17:29:18.249Z,18.65
2023-02-21T17:33:41.309Z,12.43
2023-02-21T17:38:06.007Z,19.58
2023-02-21T17:42:28.587Z,16.23
2023-02-21T17:46:58.078Z,14.50
2023-02-21T17:51:27.056Z,16.10
2023-02-21T17:55:49.294Z,18.48
2023-02-21T18:00:27.343Z,15.95
2023-02-21T18:04:51.553Z,17.55
2023-02-21T18:09:14.152Z,15.15
2023-02-21T18:13:36.243Z,13.80
2023-02-21T18:18:05.297Z,17.88
2023-02-21T18:22:28.731Z,13.65
2023-02-21T18:26:51.537Z,15.32
2023-02-21T18:31:20.425Z,15.15
2023-02-21T18:35:42.915Z,15.40
2023-02-21T18:40:08.771Z,15.43
2023-02-21T18:44:33.132Z,13.55
2023-02-21T18:48:55.255Z,14.88
2023-02-21T18:53:18.373Z,16.30
2023-02-21T18:57:40.394Z,17.50
2023-02-21T19:02:02.413Z,17.27
2023-02-21T19:06:25.699Z,15.65
2023-02-21T19:10:49.495Z,16.63
2023-02-21T19:15:11.732Z,15.70
2023-02-21T19:19:33.654Z,16.45
2023-02-21T19:23:55.755Z,15.18
2023-02-21T19:28:17.975Z,16.20
2023-02-21T19:32:40.250Z,16.08
2023-02-21T19:37:02.471Z,15.20
2023-02-21T19:41:25.931Z,17.67
2023-02-21T19:45:47.891Z,17.83
2023-02-21T19:50:10.690Z,17.05
2023-02-21T19:54:33.095Z,16.45
2023-02-21T19:58:55.601Z,16.92
2023-02-21T20:03:17.570Z,16.35
2023-02-21T20:07:40.653Z,16.00
2023-02-21T20:12:03.311Z,17.95
2023-02-21T20:16:26.217Z,19.73
2023-02-21T20:20:49.673Z,16.52
2023-02-21T20:25:11.633Z,19.65
2023-02-21T20:29:33.592Z,15.35
2023-02-21T20:33:56.719Z,18.58
2023-02-21T20:38:19.896Z,16.25
2023-02-21T20:42:43.454Z,18.75
2023-02-21T20:47:10.053Z,19.30
2023-02-21T20:51:36.966Z,16.15
2023-02-21T20:55:59.067Z,18.90
2023-02-21T21:00:23.811Z,18.27
2023-02-21T21:04:48.292Z,17.02
2023-02-21T21:09:10.216Z,22.17
2023-02-21T21:13:32.292Z,19.33
2023-02-21T21:17:54.194Z,19.90
2023-02-21T21:22:20.160Z,16.25
2023-02-21T21:26:53.389Z,16.92
2023-02-21T21:31:15.833Z,20.15
2023-02-21T21:35:37.866Z,17.45
2023-02-21T21:40:14.379Z,20.15
2023-02-21T21:44:40.171Z,17.05
2023-02-21T21:49:02.739Z,16.83
2023-02-21T21:53:24.471Z,19.17
2023-02-21T21:57:48.450Z,17.85
2023-02-21T22:02:12.089Z,18.33
2023-02-21T22:06:35.018Z,15.65
2023-02-21T22:11:00.369Z,18.25
2023-02-21T22:15:29.360Z,17.00
2023-02-21T22:19:51.195Z,16.10
2023-02-21T22:24:20.885Z,18.25
2023-02-21T22:28:43.068Z,16.90
2023-02-21T22:33:09.027Z,21.38
2023-02-21T22:37:30.969Z,17.05
2023-02-21T22:41:54.031Z,17.20
2023-02-21T22:46:22.395Z,15.75
2023-02-21T22:50:47.619Z,15.40
2023-02-21T22:55:10.030Z,17.58
2023-02-21T22:59:35.609Z,17.27
2023-02-21T23:04:10.835Z,14.73
2023-02-21T23:08:37.289Z,14.95
2023-02-21T23:13:00.185Z,15.68
2023-02-21T23:17:22.623Z,17.88
2023-02-21T23:21:50.645Z,17.98
2023-02-21T23:26:19.731Z,18.63
2023-02-21T23:30:43.154Z,16.02
2023-02-21T23:35:08.020Z,14.98
2023-02-21T23:39:30.609Z,15.07
2023-02-21T23:43:52.530Z,16.20
2023-02-21T23:48:15.899Z,16.63
2023-02-21T23:52:38.032Z,16.42
2023-02-21T23:57:00.961Z,16.20
